createdAt,value
2023-08-29T00:01:37.912Z,98005.67
2023-08-29T00:04:26.571Z,97995.88
2023-08-29T00:07:15.196Z,97994.25
2023-08-29T00:10:04.430Z,97983.67
2023-08-29T00:12:53.725Z,97987.61
2023-08-29T00:15:42.337Z,97982.95
2023-08-29T00:18:30.911Z,97979.92
2023-08-29T00:21:19.507Z,97975.52
2023-08-29T00:24:10.932Z,97972.11
2023-08-29T00:27:00.022Z,97970.15
2023-08-29T00:29:48.674Z,97974.84
2023-08-29T00:32:37.322Z,97976.27
2023-08-29T00:35:26.131Z,97979.52
2023-08-29T00:38:15.665Z,97991.08
2023-08-29T00:41:05.015Z,98002.42
2023-08-29T00:43:53.770Z,98008.82
2023-08-29T00:46:44.232Z,98007.58
2023-08-29T00:49:32.972Z,98012.77
2023-08-29T00:52:21.821Z,98003.54
2023-08-29T00:55:10.599Z,98012.42
2023-08-29T00:58:01.423Z,97997.16
2023-08-29T01:00:50.216Z,98001.14
2023-08-29T01:03:40.115Z,98002.27
2023-08-29T01:06:28.997Z,98000.94
2023-08-29T01:09:17.792Z,98008.61
2023-08-29T01:12:12.423Z,98026.39
2023-08-29T01:15:13.964Z,98003.20
2023-08-29T01:18:07.090Z,98007.70
2023-08-29T01:21:03.999Z,98034.73
2023-08-29T01:24:02.625Z,98059.63
2023-08-29T01:26:52.366Z,98082.09
2023-08-29T01:29:42.658Z,98084.07
2023-08-29T01:32:31.974Z,98079.05
2023-08-29T01:35:22.923Z,98092.71
2023-08-29T01:38:11.513Z,98082.03
2023-08-29T01:41:00.170Z,98089.80
2023-08-29T01:43:48.850Z,98086.40
2023-08-29T01:46:38.450Z,98072.88
2023-08-29T01:49:28.252Z,98068.52
2023-08-29T01:52:17.059Z,98064.90
2023-08-29T01:55:06.167Z,98068.81
2023-08-29T01:57:55.729Z,98071.36
2023-08-29T02:00:45.379Z,98066.03
2023-08-29T02:03:34.096Z,98049.61
2023-08-29T02:06:22.777Z,98052.19
2023-08-29T02:09:12.326Z,98049.29
2023-08-29T02:12:01.167Z,98053.11
2023-08-29T02:14:49.871Z,98057.58
2023-08-29T02:17:38.645Z,98057.52
2023-08-29T02:20:30.446Z,98053.98
2023-08-29T02:23:19.130Z,98057.52
2023-08-29T02:26:09.248Z,98051.80
2023-08-29T02:28:57.976Z,98047.42
2023-08-29T02:31:46.772Z,98038.49
2023-08-29T02:34:35.376Z,98038.04
2023-08-29T02:37:25.567Z,98040.23
2023-08-29T02:40:14.387Z,98045.84
2023-08-29T02:43:03.060Z,98051.27
2023-08-29T02:45:52.003Z,98058.10
2023-08-29T02:48:40.693Z,98050.91
2023-08-29T02:51:29.318Z,98028.62
2023-08-29T02:54:19.421Z,98016.10
2023-08-29T02:57:08.073Z,98004.86
2023-08-29T02:59:56.823Z,97986.70
2023-08-29T03:02:45.570Z,97974.16
2023-08-29T03:05:34.451Z,97968.96
2023-08-29T03:08:23.336Z,97959.40
2023-08-29T03:11:12.157Z,97962.89
2023-08-29T03:14:00.841Z,97969.13
2023-08-29T03:16:49.511Z,97966.70
2023-08-29T03:19:38.327Z,97965.41
2023-08-29T03:22:26.920Z,97972.63
2023-08-29T03:25:15.814Z,97965.81
2023-08-29T03:28:05.428Z,97965.94
2023-08-29T03:30:54.384Z,97963.77
2023-08-29T03:33:44.877Z,97955.11
2023-08-29T03:36:33.651Z,97942.06
2023-08-29T03:39:22.401Z,97949.36
2023-08-29T03:42:11.042Z,97933.58
2023-08-29T03:44:59.689Z,97925.91
2023-08-29T03:47:49.600Z,97931.98
2023-08-29T03:50:38.326Z,97927.92
2023-08-29T03:53:26.927Z,97930.86
2023-08-29T03:56:16.568Z,97931.26
2023-08-29T03:59:05.338Z,97926.00
2023-08-29T04:01:53.986Z,97918.02
2023-08-29T04:04:45.632Z,97900.16
2023-08-29T04:07:34.384Z,97879.14
2023-08-29T04:10:23.006Z,97865.96
2023-08-29T04:13:16.301Z,97860.45
2023-08-29T04:16:05.402Z,97876.61
2023-08-29T04:18:55.247Z,97884.89
2023-08-29T04:21:44.227Z,97875.84
2023-08-29T04:24:33.712Z,97892.34
2023-08-29T04:27:22.895Z,97902.26
2023-08-29T04:30:11.717Z,97894.93
2023-08-29T04:33:00.869Z,97892.89
2023-08-29T04:35:51.898Z,97885.86
2023-08-29T04:38:43.156Z,97877.83
2023-08-29T04:41:31.770Z,97879.86
2023-08-29T04:44:20.548Z,97880.20
2023-08-29T04:47:09.670Z,97878.29
2023-08-29T04:49:58.940Z,97886.13
2023-08-29T04:52:49.686Z,97886.49
2023-08-29T04:55:38.794Z,97899.75
2023-08-29T04:58:27.878Z,97901.27
2023-08-29T05:01:18.246Z,97899.27
2023-08-29T05:04:09.820Z,97899.07
2023-08-29T05:06:58.454Z,97891.28
2023-08-29T05:09:48.262Z,97894.31
2023-08-29T05:12:37.060Z,97903.27
2023-08-29T05:15:25.823Z,97907.83
2023-08-29T05:18:14.680Z,97912.85
2023-08-29T05:21:03.975Z,97917.35
2023-08-29T05:23:52.626Z,97909.00
2023-08-29T05:26:41.284Z,97905.90
2023-08-29T05:29:29.934Z,97896.32
2023-08-29T05:32:18.495Z,97899.92
2023-08-29T05:35:10.457Z,97900.10
2023-08-29T05:37:59.085Z,97896.88
2023-08-29T05:40:55.224Z,97907.89
2023-08-29T05:43:43.810Z,97913.06
2023-08-29T05:46:32.603Z,97917.88
2023-08-29T05:49:21.262Z,97913.02
2023-08-29T05:52:10.000Z,97913.96
2023-08-29T05:54:58.908Z,97919.68
2023-08-29T05:57:47.541Z,97922.49
2023-08-29T06:00:37.257Z,97911.25
2023-08-29T06:03:26.060Z,97904.38
2023-08-29T06:06:16.266Z,97916.27
2023-08-29T06:09:04.959Z,97916.31
2023-08-29T06:11:53.628Z,97909.63
2023-08-29T06:14:42.345Z,97909.61
2023-08-29T06:17:31.334Z,97916.48
2023-08-29T06:20:20.095Z,97917.89
2023-08-29T06:23:08.723Z,97912.66
2023-08-29T06:25:57.412Z,97911.55
2023-08-29T06:28:46.138Z,97911.65
2023-08-29T06:31:34.893Z,97904.73
2023-08-29T06:34:24.837Z,97916.77
2023-08-29T06:37:13.446Z,97920.73
2023-08-29T06:40:02.062Z,97929.66
2023-08-29T06:42:50.789Z,97924.70
2023-08-29T06:45:39.373Z,97912.05
2023-08-29T06:48:27.973Z,97902.97
2023-08-29T06:51:16.583Z,97903.85
2023-08-29T06:54:05.496Z,97907.64
2023-08-29T06:56:54.054Z,97897.66
2023-08-29T06:59:42.647Z,97887.29
2023-08-29T07:02:31.396Z,97878.69
2023-08-29T07:05:20.566Z,97872.70
2023-08-29T07:08:09.405Z,97880.40
2023-08-29T07:10:58.361Z,97882.33
2023-08-29T07:13:46.999Z,97881.65
2023-08-29T07:16:35.688Z,97891.72
2023-08-29T07:19:24.338Z,97915.83
2023-08-29T07:25:06.721Z,97953.71
2023-08-29T07:27:55.312Z,97959.10
2023-08-29T07:30:46.871Z,97968.54
2023-08-29T07:33:35.561Z,97969.84
2023-08-29T07:36:24.241Z,97969.42
2023-08-29T07:39:13.293Z,97964.68
2023-08-29T07:42:01.923Z,97964.37
2023-08-29T07:44:50.587Z,97953.98
2023-08-29T07:47:39.316Z,97950.95
2023-08-29T07:50:28.679Z,97962.77
2023-08-29T07:53:17.512Z,97959.48
2023-08-29T07:56:06.157Z,97961.60
2023-08-29T07:58:54.914Z,97976.11
2023-08-29T08:01:44.159Z,97987.81
2023-08-29T08:04:32.806Z,97995.92
2023-08-29T08:07:21.554Z,97993.86
2023-08-29T08:10:11.665Z,97994.50
2023-08-29T08:13:00.302Z,97990.67
2023-08-29T08:15:48.868Z,97974.43
2023-08-29T08:18:37.537Z,97975.67
2023-08-29T08:21:26.146Z,97958.86
2023-08-29T08:24:14.775Z,97944.52
2023-08-29T08:27:03.716Z,97961.87
2023-08-29T08:29:52.345Z,97944.95
2023-08-29T08:32:40.964Z,97935.86
2023-08-29T08:35:31.812Z,97932.38
2023-08-29T08:38:22.256Z,97925.73
2023-08-29T08:41:11.689Z,97944.20
2023-08-29T08:44:05.081Z,97929.14
2023-08-29T08:46:54.192Z,97907.11
2023-08-29T08:49:43.988Z,97904.11
2023-08-29T08:52:34.753Z,97916.99
2023-08-29T08:55:24.133Z,97925.17
2023-08-29T08:58:13.725Z,97911.40
2023-08-29T09:01:02.597Z,97933.22
2023-08-29T09:03:51.870Z,97927.23
2023-08-29T09:06:40.799Z,97915.27
2023-08-29T09:09:29.394Z,97933.52
2023-08-29T09:12:18.032Z,97936.75
2023-08-29T09:15:07.129Z,97926.23
2023-08-29T09:17:55.959Z,97920.36
2023-08-29T09:20:44.762Z,97940.20
2023-08-29T09:23:38.884Z,97970.43
2023-08-29T09:26:35.080Z,97976.32
2023-08-29T09:29:25.191Z,97974.59
2023-08-29T09:32:15.135Z,97976.20
2023-08-29T09:35:06.804Z,97966.95
2023-08-29T09:37:56.600Z,97959.27
2023-08-29T09:40:50.455Z,97961.10
2023-08-29T09:43:48.870Z,97968.89
2023-08-29T09:46:37.673Z,97959.96
2023-08-29T09:49:52.922Z,97965.06
2023-08-29T09:52:42.095Z,97967.38
2023-08-29T09:55:40.552Z,97976.98
2023-08-29T09:58:30.775Z,97988.55
2023-08-29T10:01:21.906Z,98000.66
2023-08-29T10:04:13.131Z,98012.11
2023-08-29T10:07:02.498Z,98008.88
2023-08-29T10:09:52.358Z,98022.88
2023-08-29T10:12:41.704Z,98026.42
2023-08-29T10:15:34.549Z,98028.53
2023-08-29T10:18:24.561Z,98031.50
2023-08-29T10:21:14.102Z,98036.63
2023-08-29T10:24:04.196Z,98040.59
2023-08-29T10:26:53.384Z,98047.96
2023-08-29T10:29:42.104Z,98047.98
2023-08-29T10:32:31.424Z,98048.39
2023-08-29T10:35:23.867Z,98046.59
2023-08-29T10:38:16.709Z,98055.02
2023-08-29T10:41:07.788Z,98055.20
2023-08-29T10:44:44.814Z,98052.58
2023-08-29T10:47:47.088Z,98044.23
2023-08-29T10:50:37.994Z,98042.69
2023-08-29T10:53:30.718Z,98046.11
2023-08-29T10:59:30.409Z,98057.22
2023-08-29T11:02:23.286Z,98056.00
2023-08-29T11:05:13.494Z,98055.94
2023-08-29T11:08:24.251Z,98049.22
2023-08-29T11:11:17.835Z,98051.04
2023-08-29T11:14:09.385Z,98040.27
2023-08-29T11:17:13.508Z,98046.77
2023-08-29T11:20:08.091Z,98051.77
2023-08-29T11:22:56.975Z,98056.30
2023-08-29T11:25:50.854Z,98061.57
2023-08-29T11:28:43.328Z,98057.59
2023-08-29T11:31:32.070Z,98062.45
2023-08-29T11:34:22.155Z,98058.36
2023-08-29T11:37:13.437Z,98055.09
2023-08-29T11:40:06.830Z,98051.83
2023-08-29T11:43:15.808Z,98058.61
2023-08-29T11:46:07.932Z,98055.82
2023-08-29T11:48:56.604Z,98061.27
2023-08-29T11:51:45.570Z,98056.47
2023-08-29T11:54:42.673Z,98054.61
2023-08-29T11:57:31.534Z,98056.20
2023-08-29T12:00:21.367Z,98056.97
2023-08-29T12:03:10.221Z,98046.77
2023-08-29T12:05:59.524Z,98042.88
2023-08-29T12:08:49.125Z,98044.64
2023-08-29T12:11:43.170Z,98047.81
2023-08-29T12:14:32.361Z,98048.02
2023-08-29T12:17:21.448Z,98045.77
2023-08-29T12:20:13.533Z,98051.41
2023-08-29T12:23:02.426Z,98054.07
2023-08-29T12:25:50.990Z,98046.83
2023-08-29T12:28:40.042Z,98047.95
2023-08-29T12:31:28.818Z,98045.33
2023-08-29T12:34:17.505Z,98048.58
2023-08-29T12:37:06.748Z,98053.33
2023-08-29T12:39:55.370Z,98051.36
2023-08-29T12:42:45.263Z,98052.66
2023-08-29T12:45:44.656Z,98049.83
2023-08-29T12:48:42.141Z,98051.16
2023-08-29T12:51:32.384Z,98050.29
2023-08-29T12:54:20.980Z,98056.10
2023-08-29T12:57:10.662Z,98060.14
2023-08-29T12:59:59.246Z,98060.48
2023-08-29T13:02:48.686Z,98062.10
2023-08-29T13:05:37.545Z,98064.02
2023-08-29T13:08:26.336Z,98065.75
2023-08-29T13:11:14.960Z,98068.48
2023-08-29T13:14:04.522Z,98076.27
2023-08-29T13:16:55.556Z,98073.46
2023-08-29T13:19:44.160Z,98079.93
2023-08-29T13:22:32.744Z,98092.43
2023-08-29T13:25:22.272Z,98109.66
2023-08-29T13:28:11.045Z,98118.77
2023-08-29T13:31:00.191Z,98119.14
2023-08-29T13:33:50.039Z,98108.38
2023-08-29T13:36:41.446Z,98100.16
2023-08-29T13:39:30.186Z,98094.08
2023-08-29T13:42:18.873Z,98080.97
2023-08-29T13:45:08.519Z,98104.12
2023-08-29T13:47:57.204Z,98093.14
2023-08-29T13:50:46.345Z,98093.73
2023-08-29T13:53:35.039Z,98101.85
2023-08-29T13:56:23.672Z,98100.69
2023-08-29T13:59:12.331Z,98084.58
2023-08-29T14:02:00.969Z,98070.78
2023-08-29T14:04:49.607Z,98062.81
2023-08-29T14:07:38.267Z,98041.73
2023-08-29T14:10:26.904Z,98032.48
2023-08-29T14:13:15.565Z,98033.80
2023-08-29T14:16:04.860Z,98039.77
2023-08-29T14:18:54.056Z,98030.71
2023-08-29T14:21:42.976Z,98017.54
2023-08-29T14:24:31.536Z,98021.33
2023-08-29T14:27:20.038Z,98032.19
2023-08-29T14:30:08.808Z,98042.96
2023-08-29T14:32:57.612Z,98053.48
2023-08-29T14:35:46.189Z,98049.46
2023-08-29T14:38:34.833Z,98040.52
2023-08-29T14:41:23.438Z,98040.79
2023-08-29T14:44:12.007Z,98042.81
2023-08-29T14:47:00.637Z,98029.44
2023-08-29T14:49:49.135Z,98030.72
2023-08-29T14:52:38.782Z,98041.05
2023-08-29T14:55:27.342Z,98039.91
2023-08-29T14:58:15.896Z,98041.48
2023-08-29T15:01:04.685Z,98051.59
2023-08-29T15:03:53.326Z,98048.38
2023-08-29T15:06:41.908Z,98050.27
2023-08-29T15:09:30.440Z,98057.66
2023-08-29T15:12:22.611Z,98076.39
2023-08-29T15:15:11.323Z,98079.41
2023-08-29T15:17:59.899Z,98073.37
2023-08-29T15:20:49.806Z,98069.95
2023-08-29T15:23:38.369Z,98069.20
2023-08-29T15:26:27.011Z,98046.98
2023-08-29T15:29:17.631Z,98047.95
2023-08-29T15:32:06.523Z,98066.85
2023-08-29T15:34:55.123Z,98057.30
2023-08-29T15:37:43.679Z,98056.24
2023-08-29T15:40:32.609Z,98034.19
2023-08-29T15:43:22.758Z,98021.89
2023-08-29T15:46:11.409Z,98030.30
2023-08-29T15:48:59.947Z,98049.75
2023-08-29T15:51:48.498Z,98066.46
2023-08-29T15:54:37.222Z,98107.05
2023-08-29T15:57:25.838Z,98130.95
2023-08-29T16:00:17.765Z,98117.73
2023-08-29T16:03:07.908Z,98098.90
2023-08-29T16:05:56.670Z,98107.24
2023-08-29T16:08:45.248Z,98113.52
2023-08-29T16:11:33.868Z,98107.59
2023-08-29T16:14:23.353Z,98124.30
2023-08-29T16:17:11.954Z,98130.20
2023-08-29T16:20:00.542Z,98050.67
2023-08-29T16:22:49.138Z,98002.39
2023-08-29T16:25:37.696Z,98026.48
2023-08-29T16:28:26.953Z,98009.90
2023-08-29T16:31:15.614Z,98016.55
2023-08-29T16:34:04.210Z,98028.31
2023-08-29T16:36:52.844Z,98013.27
2023-08-29T16:39:41.567Z,98022.14
2023-08-29T16:42:33.828Z,98017.17
2023-08-29T16:45:24.641Z,98028.13
2023-08-29T16:48:13.128Z,98030.67
2023-08-29T16:51:01.666Z,98038.02
2023-08-29T16:53:50.221Z,98043.34
2023-08-29T16:56:38.749Z,98042.86
2023-08-29T16:59:31.552Z,98047.90
2023-08-29T17:02:20.409Z,98062.08
2023-08-29T17:05:09.280Z,98052.30
2023-08-29T17:07:58.443Z,98050.09
2023-08-29T17:10:47.706Z,98053.26
2023-08-29T17:13:36.223Z,98039.60
2023-08-29T17:16:24.867Z,98027.98
2023-08-29T17:19:14.096Z,98031.06
2023-08-29T17:22:03.396Z,98036.22
2023-08-29T17:24:52.434Z,98043.53
2023-08-29T17:27:41.164Z,98046.20
2023-08-29T17:30:29.688Z,98051.83
2023-08-29T17:33:20.384Z,98048.54
2023-08-29T17:36:09.167Z,98042.54
2023-08-29T17:38:57.770Z,98037.69
2023-08-29T17:41:46.332Z,98038.44
2023-08-29T17:44:34.865Z,98038.48
2023-08-29T17:47:23.469Z,98029.49
2023-08-29T17:50:13.807Z,98026.88
2023-08-29T17:53:02.457Z,98027.67
2023-08-29T17:55:53.518Z,98023.33
2023-08-29T17:58:42.070Z,98028.19
2023-08-29T18:01:30.707Z,98029.64
2023-08-29T18:04:19.282Z,98040.29
2023-08-29T18:07:09.606Z,98052.23
2023-08-29T18:10:14.664Z,98062.59
2023-08-29T18:13:03.830Z,98071.48
2023-08-29T18:15:52.565Z,98055.41
2023-08-29T18:18:41.180Z,98045.52
2023-08-29T18:21:29.851Z,98046.77
2023-08-29T18:24:18.374Z,98044.73
2023-08-29T18:27:06.938Z,98047.30
2023-08-29T18:29:55.477Z,98042.10
2023-08-29T18:32:44.271Z,98042.90
2023-08-29T18:35:34.844Z,98033.42
2023-08-29T18:38:24.777Z,98029.18
2023-08-29T18:41:13.353Z,98028.89
2023-08-29T18:44:01.923Z,98027.29
2023-08-29T18:46:50.445Z,98021.56
2023-08-29T18:49:39.142Z,98012.13
2023-08-29T18:52:27.656Z,98002.45
2023-08-29T18:55:16.942Z,97991.17
2023-08-29T18:58:05.908Z,97986.23
2023-08-29T19:00:54.691Z,97990.59
2023-08-29T19:03:44.762Z,97996.02
2023-08-29T19:06:33.635Z,97987.37
2023-08-29T19:09:22.380Z,97980.46
2023-08-29T19:12:11.005Z,97980.29
2023-08-29T19:15:01.849Z,97978.00
2023-08-29T19:17:50.390Z,97971.55
2023-08-29T19:20:39.282Z,97966.11
2023-08-29T19:23:29.341Z,97965.95
2023-08-29T19:26:18.541Z,97959.81
2023-08-29T19:29:07.158Z,97960.52
2023-08-29T19:31:55.842Z,97957.58
2023-08-29T19:34:44.372Z,97959.83
2023-08-29T19:37:33.231Z,97964.93
2023-08-29T19:40:21.994Z,97970.70
2023-08-29T19:43:10.520Z,97957.64
2023-08-29T19:45:59.197Z,97952.81
2023-08-29T19:48:47.753Z,97951.63
2023-08-29T19:51:36.300Z,97962.41
2023-08-29T19:54:24.911Z,97970.07
2023-08-29T19:57:14.374Z,97981.52
2023-08-29T20:00:06.314Z,97981.73
2023-08-29T20:03:02.420Z,97979.01
2023-08-29T20:05:51.041Z,97987.27
2023-08-29T20:08:39.834Z,97995.84
2023-08-29T20:11:28.734Z,98006.27
2023-08-29T20:14:17.425Z,98016.80
2023-08-29T20:17:06.641Z,98030.33
2023-08-29T20:19:55.299Z,98033.54
2023-08-29T20:22:44.567Z,98032.05
2023-08-29T20:25:33.987Z,98031.88
2023-08-29T20:28:22.873Z,98038.76
2023-08-29T20:31:12.252Z,98044.81
2023-08-29T20:34:00.849Z,98041.02
2023-08-29T20:36:49.506Z,98031.66
2023-08-29T20:39:38.913Z,98029.89
2023-08-29T20:42:27.508Z,98030.84
2023-08-29T20:45:16.459Z,98022.52
2023-08-29T20:48:05.601Z,98016.80
2023-08-29T20:51:02.229Z,98010.63
2023-08-29T20:53:51.210Z,98011.05
2023-08-29T20:56:39.826Z,98011.02
2023-08-29T20:59:28.786Z,98004.86
2023-08-29T21:02:17.429Z,97990.05
2023-08-29T21:05:06.817Z,97984.26
2023-08-29T21:07:55.341Z,97975.91
2023-08-29T21:10:44.692Z,97964.52
2023-08-29T21:13:33.292Z,97960.43
2023-08-29T21:16:21.835Z,97949.84
2023-08-29T21:19:10.377Z,97969.46
2023-08-29T21:21:59.250Z,97992.11
2023-08-29T21:24:47.841Z,98007.98
2023-08-29T21:27:36.357Z,98010.30
2023-08-29T21:30:24.910Z,98003.33
2023-08-29T21:33:14.897Z,97994.21
2023-08-29T21:36:04.321Z,97994.88
2023-08-29T21:38:52.912Z,97988.70
2023-08-29T21:41:41.884Z,97992.39
2023-08-29T21:44:30.383Z,97995.73
2023-08-29T21:47:18.962Z,98002.19
2023-08-29T21:50:07.951Z,98013.63
2023-08-29T21:52:56.759Z,98018.96
2023-08-29T21:55:45.987Z,98024.92
2023-08-29T21:58:34.605Z,98040.36
2023-08-29T22:01:23.186Z,98042.96
2023-08-29T22:04:11.734Z,98027.39
2023-08-29T22:07:00.283Z,98010.98
2023-08-29T22:09:48.862Z,97998.89
2023-08-29T22:12:37.713Z,97984.20
2023-08-29T22:15:26.291Z,97976.17
2023-08-29T22:18:14.942Z,97964.66
2023-08-29T22:21:07.845Z,97967.16
2023-08-29T22:23:56.516Z,97987.67
2023-08-29T22:26:45.040Z,98004.18
2023-08-29T22:29:34.940Z,98009.52
2023-08-29T22:32:23.940Z,98012.77
2023-08-29T22:35:12.652Z,98009.79
2023-08-29T22:38:01.655Z,98009.36
2023-08-29T22:40:50.636Z,98003.95
2023-08-29T22:43:39.260Z,97997.91
2023-08-29T22:46:27.931Z,98003.92
2023-08-29T22:49:16.858Z,98006.31
2023-08-29T22:52:05.875Z,98014.64
2023-08-29T22:54:54.527Z,98021.08
2023-08-29T22:57:43.154Z,98032.11
2023-08-29T23:00:31.840Z,98040.84
2023-08-29T23:03:20.651Z,98044.09
2023-08-29T23:06:09.349Z,98041.46
2023-08-29T23:08:58.911Z,98044.89
2023-08-29T23:11:47.482Z,98040.30
2023-08-29T23:14:36.151Z,98030.02
2023-08-29T23:17:25.013Z,98025.61
2023-08-29T23:20:13.871Z,98015.86
2023-08-29T23:23:02.528Z,98008.52
2023-08-29T23:25:59.131Z,97997.20
2023-08-29T23:28:47.797Z,97990.92
2023-08-29T23:31:36.509Z,97989.44
2023-08-29T23:34:26.660Z,97995.94
2023-08-29T23:37:15.240Z,97989.59
2023-08-29T23:40:08.075Z,97983.95
2023-08-29T23:42:56.935Z,97979.73
2023-08-29T23:45:45.551Z,97972.85
2023-08-29T23:48:34.692Z,97974.66
2023-08-29T23:51:23.601Z,97979.02
2023-08-29T23:54:12.181Z,97983.13
2023-08-29T23:57:00.712Z,97984.90
2023-08-29T23:59:49.347Z,97991.09
